Time;durP1;ratioP1;P1;durP2;ratioP2;P2;SDS_P1;SDS_P2;PMS_P1;PMS_P2;Temp;Humidity;BMP_temperature;BMP_pressure;BME280_temperature;BME280_humidity;BME280_pressure;Samples;Min_cycle;Max_cycle;Signal;HPM_P1;HPM_P2
2021/12/05 00:22:46;;;;;;;;;1.75;0.75;;;;;7.64;63.89;99878.75;5031751;28;45091;-69
2021/12/05 00:25:19;;;;;;;;;5.75;3.50;;;;;7.59;63.70;99878.66;5031917;28;45009;-69
2021/12/05 00:27:50;;;;;;;;;0.50;0.50;;;;;7.67;63.49;99879.75;5021630;28;45653;-70
2021/12/05 00:30:59;;;;;;;;;1.00;1.00;;;;;7.66;63.58;99885.91;5022857;28;45279;-70
2021/12/05 01:00:00;;;;;;;;;2.75;2.00;;;;;7.87;62.89;99858.94;5030288;28;45311;-69
2021/12/05 01:02:48;;;;;;;;;0.50;0.50;;;;;7.65;62.55;99838.91;5034080;28;45217;-69
2021/12/05 01:08:10;;;;;;;;;0.50;0.50;;;;;7.80;62.29;99858.75;5026273;28;45227;-68
2021/12/05 01:13:32;;;;;;;;;0.00;0.00;;;;;7.62;62.75;99836.19;5034873;28;45020;-69
2021/12/05 01:16:00;;;;;;;;;0.00;0.00;;;;;7.55;62.26;99847.53;5034567;28;45037;-69
2021/12/05 01:18:27;;;;;;;;;0.75;0.75;;;;;7.54;62.68;99844.00;5034563;28;45150;-69
2021/12/05 01:21:02;;;;;;;;;3.50;1.00;;;;;7.56;62.83;99844.03;5034210;28;45721;-69
2021/12/05 01:23:56;;;;;;;;;2.00;0.00;;;;;7.57;63.12;99843.16;5033080;28;45150;-72
2021/12/05 01:26:50;;;;;;;;;0.00;0.00;;;;;7.62;63.07;99846.81;5034803;28;44926;-68
2021/12/05 01:29:31;;;;;;;;;1.75;1.75;;;;;7.48;63.08;99819.03;5035122;28;45103;-68
2021/12/05 01:40:28;;;;;;;;;0.00;0.00;;;;;7.55;62.93;99840.47;5034449;28;44949;-69
2021/12/05 01:43:26;;;;;;;;;5.75;1.00;;;;;7.43;63.33;99820.69;5031864;28;45385;-69
2021/12/05 01:54:25;;;;;;;;;4.00;1.00;;;;;7.18;63.42;99797.06;5033516;28;45183;-69
2021/12/05 01:59:27;;;;;;;;;1.25;1.25;;;;;7.43;63.50;99826.88;5022294;28;45212;-68
2021/12/05 02:07:53;;;;;;;;;2.00;0.50;;;;;7.37;63.54;99819.69;5033585;28;45067;-69
2021/12/05 02:40:09;;;;;;;;;3.00;1.50;;;;;7.32;63.47;99807.13;5032797;28;45088;-68
2021/12/05 02:42:47;;;;;;;;;2.00;2.00;;;;;7.35;63.60;99804.56;5033271;28;44970;-69
2021/12/05 02:45:13;;;;;;;;;1.00;1.00;;;;;7.43;64.00;99813.59;5034199;28;45115;-68
2021/12/05 02:47:47;;;;;;;;;2.00;0.75;;;;;7.41;63.48;99810.03;5033635;28;45634;-69
2021/12/05 02:50:13;;;;;;;;;3.00;0.00;;;;;7.12;63.22;99764.16;5032548;28;45199;-69
2021/12/05 02:52:41;;;;;;;;;3.75;3.75;;;;;7.32;63.46;99792.06;5033430;28;45118;-69
2021/12/05 02:55:40;;;;;;;;;2.00;1.25;;;;;7.29;63.88;99791.09;5033037;28;45138;-69
2021/12/05 02:58:26;;;;;;;;;1.75;0.75;;;;;7.25;63.55;99784.84;5033227;28;45383;-69
2021/12/05 03:03:28;;;;;;;;;3.00;0.25;;;;;7.26;63.43;99786.63;5013136;28;45026;-69
2021/12/05 03:06:05;;;;;;;;;4.00;2.25;;;;;7.00;63.45;99752.34;5013712;28;45180;-67
2021/12/05 03:08:31;;;;;;;;;7.00;4.00;;;;;7.25;64.09;99797.22;5026598;28;46573;-69
2021/12/05 03:10:58;;;;;;;;;1.75;0.75;;;;;7.28;63.60;99798.19;5032696;28;45078;-70
2021/12/05 03:13:24;;;;;;;;;0.50;0.00;;;;;7.30;63.75;99792.91;5033345;28;44951;-69
2021/12/05 03:15:51;;;;;;;;;2.00;1.00;;;;;7.26;63.58;99777.75;5032876;28;45269;-69
2021/12/05 03:18:16;;;;;;;;;3.00;1.00;;;;;7.29;63.58;99788.44;5032563;28;47510;-70
2021/12/05 03:20:42;;;;;;;;;0.50;0.50;;;;;7.17;63.63;99773.13;5032430;28;44997;-69
2021/12/05 03:23:07;;;;;;;;;2.75;1.50;;;;;6.91;64.01;99741.50;5033252;28;45323;-69
2021/12/05 03:25:33;;;;;;;;;0.00;0.00;;;;;7.18;64.06;99780.25;5033917;28;45083;-69
2021/12/05 03:27:59;;;;;;;;;0.25;0.25;;;;;7.12;63.47;99773.00;5033343;28;45175;-69
2021/12/05 03:30:26;;;;;;;;;1.00;0.25;;;;;6.85;63.55;99729.81;5032838;28;45024;-69
2021/12/05 03:32:53;;;;;;;;;0.00;0.00;;;;;7.16;63.93;99789.91;5031324;28;45394;-69
2021/12/05 03:35:23;;;;;;;;;1.25;0.00;;;;;6.97;63.58;99743.41;5033692;28;45154;-68
2021/12/05 03:37:49;;;;;;;;;2.00;0.00;;;;;7.19;63.75;99774.03;5032934;28;45557;-68
2021/12/05 03:40:23;;;;;;;;;0.00;0.00;;;;;7.23;63.31;99772.38;5032749;28;45362;-70
2021/12/05 03:42:50;;;;;;;;;1.00;1.00;;;;;6.58;63.24;99665.50;5046791;28;45446;-68
2021/12/05 03:45:21;;;;;;;;;1.25;0.00;;;;;7.19;63.23;99774.03;5031836;28;45220;-68
2021/12/05 03:47:47;;;;;;;;;1.00;0.25;;;;;7.17;63.50;99768.69;5031865;28;45064;-69
2021/12/05 03:50:14;;;;;;;;;1.50;0.25;;;;;7.15;63.53;99766.88;5032030;28;45021;-68
2021/12/05 03:52:40;;;;;;;;;2.75;1.00;;;;;6.76;63.48;99710.16;5032746;28;45095;-69
2021/12/05 03:55:08;;;;;;;;;3.25;1.00;;;;;7.14;63.52;99763.34;5030440;28;45237;-68
2021/12/05 03:57:34;;;;;;;;;0.00;0.00;;;;;7.14;63.36;99767.72;5031285;28;45139;-70
2021/12/05 03:59:59;;;;;;;;;0.00;0.00;;;;;7.10;62.54;99753.47;5030902;28;45163;-70
2021/12/05 04:02:25;;;;;;;;;0.75;0.75;;;;;7.02;62.57;99741.78;5032273;28;45239;-70
2021/12/05 04:04:51;;;;;;;;;0.00;0.00;;;;;7.13;62.89;99763.28;5032315;28;45072;-70
2021/12/05 04:07:17;;;;;;;;;0.00;0.00;;;;;7.12;63.12;99758.84;5032319;28;45804;-69
2021/12/05 04:09:45;;;;;;;;;0.00;0.00;;;;;6.98;63.05;99737.25;5032060;28;44985;-68
2021/12/05 04:12:11;;;;;;;;;1.00;1.00;;;;;6.94;62.92;99716.78;5032121;28;45189;-68
2021/12/05 04:14:43;;;;;;;;;0.00;0.00;;;;;6.87;62.27;99718.41;5030163;28;45256;-69
2021/12/05 04:17:12;;;;;;;;;0.00;0.00;;;;;6.99;62.65;99729.31;5031113;28;46865;-71
2021/12/05 04:19:39;;;;;;;;;1.00;0.00;;;;;7.01;62.35;99737.31;5031282;28;45007;-69
2021/12/05 04:22:06;;;;;;;;;1.25;1.25;;;;;6.98;62.70;99742.56;5032365;28;44918;-71
2021/12/05 04:24:32;;;;;;;;;2.50;1.00;;;;;7.09;62.79;99758.75;5032385;28;45007;-69
2021/12/05 04:26:58;;;;;;;;;1.75;0.00;;;;;7.08;62.77;99768.50;5031856;28;45150;-68
2021/12/05 04:29:23;;;;;;;;;0.75;0.00;;;;;7.09;62.56;99756.09;5031969;28;45051;-70
2021/12/05 04:31:49;;;;;;;;;0.00;0.00;;;;;7.01;62.31;99751.50;5032609;28;44954;-69
2021/12/05 04:34:15;;;;;;;;;0.00;0.00;;;;;7.01;62.16;99769.19;5032647;28;45195;-70
2021/12/05 04:36:42;;;;;;;;;0.00;0.00;;;;;6.60;62.25;99707.97;5032090;28;45526;-71
2021/12/05 04:39:08;;;;;;;;;2.00;0.00;;;;;6.86;62.65;99756.41;5032641;28;44986;-71
2021/12/05 04:41:34;;;;;;;;;0.00;0.00;;;;;6.83;62.81;99743.97;5032468;28;45038;-68
2021/12/05 04:44:01;;;;;;;;;0.25;0.25;;;;;6.81;62.95;99748.38;5032379;28;44881;-71
2021/12/05 04:46:27;;;;;;;;;2.50;0.00;;;;;6.80;62.61;99745.66;5029572;28;45049;-72
2021/12/05 04:48:54;;;;;;;;;0.00;0.00;;;;;6.37;62.84;99656.97;5031691;28;44992;-70
2021/12/05 04:51:24;;;;;;;;;0.00;0.00;;;;;6.70;62.53;99709.09;5032199;28;45139;-70
2021/12/05 04:53:50;;;;;;;;;0.00;0.00;;;;;6.81;62.62;99740.41;5030890;28;45358;-71
2021/12/05 04:56:16;;;;;;;;;0.00;0.00;;;;;6.86;62.40;99739.59;5031841;28;45667;-69
2021/12/05 04:58:42;;;;;;;;;2.00;0.00;;;;;6.53;62.54;99685.69;5032541;28;44930;-69
2021/12/05 05:01:08;;;;;;;;;1.00;0.00;;;;;6.79;62.64;99739.44;5032349;28;45177;-70
2021/12/05 05:03:35;;;;;;;;;0.00;0.00;;;;;6.86;62.64;99743.13;5032089;28;45484;-69
2021/12/05 05:06:14;;;;;;;;;0.00;0.00;;;;;6.80;62.95;99729.75;5031105;28;45673;-69
2021/12/05 05:08:41;;;;;;;;;0.00;0.00;;;;;6.66;62.85;99702.81;5030612;28;45161;-70
2021/12/05 05:11:11;;;;;;;;;1.00;0.00;;;;;6.43;63.02;99654.47;5031679;28;45114;-71
2021/12/05 05:13:37;;;;;;;;;0.00;0.00;;;;;6.92;63.00;99739.75;5031255;28;44927;-68
2021/12/05 05:16:04;;;;;;;;;0.00;0.00;;;;;6.96;62.79;99736.31;5031848;28;45057;-70
2021/12/05 05:18:41;;;;;;;;;0.00;0.00;;;;;6.69;62.84;99680.78;5031680;28;44922;-69
2021/12/05 05:48:03;;;;;;;;;0.25;0.25;;;;;7.14;62.43;99733.19;5034264;28;45359;-68
2021/12/05 05:50:23;;;;;;;;;0.00;0.00;;;;;7.13;62.51;99729.66;5034794;28;45139;-70
2021/12/05 05:52:49;;;;;;;;;0.75;0.75;;;;;7.27;62.43;99742.34;5034473;28;45311;-71
2021/12/05 05:55:14;;;;;;;;;0.00;0.00;;;;;7.21;62.62;99721.88;5034840;28;44941;-68
2021/12/05 06:00:20;;;;;;;;;0.00;0.00;;;;;7.27;63.15;99729.06;5033217;28;45166;-70
2021/12/05 06:05:32;;;;;;;;;0.00;0.00;;;;;7.17;63.89;99694.31;5014640;28;45197;-68
2021/12/05 06:07:58;;;;;;;;;0.25;0.25;;;;;7.30;63.78;99713.22;5013779;28;45672;-69
2021/12/05 06:10:26;;;;;;;;;0.00;0.00;;;;;7.28;64.13;99717.59;5023657;28;45362;-70
2021/12/05 06:12:52;;;;;;;;;1.00;0.00;;;;;7.30;63.70;99706.13;5031845;28;45311;-70
2021/12/05 06:15:21;;;;;;;;;0.00;0.00;;;;;6.83;63.53;99637.78;5031844;28;45096;-69
2021/12/05 06:17:46;;;;;;;;;1.75;0.00;;;;;7.37;63.64;99720.44;5031609;28;45925;-70
2021/12/05 06:20:17;;;;;;;;;0.00;0.00;;;;;7.37;64.10;99715.13;5032171;28;45069;-70
2021/12/05 06:22:45;;;;;;;;;0.00;0.00;;;;;7.31;63.54;99697.31;5033711;28;45103;-69
2021/12/05 06:25:19;;;;;;;;;1.00;0.00;;;;;7.36;62.78;99702.72;5034581;28;45222;-70
2021/12/05 06:27:45;;;;;;;;;0.00;0.00;;;;;7.30;62.88;99706.13;5033502;28;45932;-68
2021/12/05 06:30:16;;;;;;;;;0.00;0.00;;;;;7.29;63.35;99703.44;5033715;28;44989;-69
2021/12/05 06:39:19;;;;;;;;;0.00;0.00;;;;;7.13;63.13;99671.22;5033162;28;45026;-71
2021/12/05 06:46:25;;;;;;;;;0.00;0.00;;;;;6.70;62.98;99603.84;5032433;28;45196;-71
2021/12/05 06:48:51;;;;;;;;;0.00;0.00;;;;;7.20;62.93;99685.53;5017653;28;45285;-69
2021/12/05 06:51:23;;;;;;;;;0.00;0.00;;;;;6.91;63.60;99651.22;5032444;28;45572;-69
2021/12/05 06:53:48;;;;;;;;;0.00;0.00;;;;;7.32;62.88;99720.34;5033886;28;45230;-70
2021/12/05 06:56:14;;;;;;;;;1.25;0.00;;;;;7.34;63.28;99739.88;5033462;28;45135;-73
2021/12/05 06:58:40;;;;;;;;;0.00;0.00;;;;;7.35;63.73;99730.16;5032891;28;45406;-71
2021/12/05 07:01:08;;;;;;;;;0.00;0.00;;;;;7.40;64.02;99744.44;5033637;28;45180;-68
2021/12/05 07:03:37;;;;;;;;;0.00;0.00;;;;;7.33;64.46;99732.78;5033291;28;45103;-70
2021/12/05 07:08:32;;;;;;;;;1.50;0.25;;;;;7.35;65.01;99754.94;5033008;28;45119;-70
2021/12/05 07:11:14;;;;;;;;;0.00;0.00;;;;;7.34;65.77;99749.59;5032941;28;45047;-69
2021/12/05 07:16:27;;;;;;;;;2.00;0.00;;;;;7.08;65.67;99712.72;5032991;28;45239;-69
2021/12/05 07:19:50;;;;;;;;;0.00;0.00;;;;;7.20;66.81;99736.91;5033944;28;45607;-68
2021/12/05 07:21:48;;;;;;;;;0.00;0.00;;;;;6.72;66.45;99670.25;5029572;28;45142;-71
2021/12/05 07:27:07;;;;;;;;;0.00;0.00;;;;;7.07;66.60;99710.91;5033170;28;44918;-69
2021/12/05 07:40:31;;;;;;;;;0.00;0.00;;;;;6.99;66.50;99728.41;5030486;28;45798;-69
2021/12/05 07:43:04;;;;;;;;;1.00;1.00;;;;;7.07;66.64;99753.41;5032356;28;45135;-69
2021/12/05 07:45:36;;;;;;;;;0.00;0.00;;;;;6.93;66.64;99717.63;5031992;28;44993;-70
2021/12/05 07:48:13;;;;;;;;;1.00;1.00;;;;;7.08;66.54;99741.94;5032416;28;44978;-68
2021/12/05 07:50:50;;;;;;;;;2.00;0.25;;;;;7.04;66.72;99734.72;5030797;28;45607;-69
2021/12/05 07:53:26;;;;;;;;;1.00;1.00;;;;;7.14;66.60;99746.47;5028672;28;45262;-70
2021/12/05 07:55:55;;;;;;;;;2.00;0.00;;;;;7.08;66.63;99743.66;5028800;28;45581;-69
2021/12/05 08:01:22;;;;;;;;;0.50;0.00;;;;;6.98;67.22;99731.94;5030798;28;45160;-69
2021/12/05 08:14:48;;;;;;;;;1.00;0.00;;;;;7.10;67.55;99740.19;5030611;28;45164;-70
2021/12/05 08:17:18;;;;;;;;;0.75;0.50;;;;;7.08;68.35;99739.28;5032140;28;45112;-72
2021/12/05 08:19:44;;;;;;;;;1.00;0.00;;;;;7.33;68.44;99751.38;5034788;28;44970;-71
2021/12/05 08:22:09;;;;;;;;;1.00;1.00;;;;;7.34;68.55;99744.28;5027504;28;45188;-70
2021/12/05 08:24:39;;;;;;;;;0.25;0.25;;;;;7.40;67.78;99740.88;5025689;28;45048;-72
2021/12/05 08:27:06;;;;;;;;;0.00;0.00;;;;;7.46;67.19;99747.25;5028504;28;45170;-69
2021/12/05 08:29:37;;;;;;;;;0.00;0.00;;;;;7.32;67.64;99730.06;5031202;28;45049;-69
2021/12/05 08:32:33;;;;;;;;;0.00;0.00;;;;;7.33;67.92;99727.47;5031408;28;45240;-69
2021/12/05 08:35:13;;;;;;;;;1.00;1.00;;;;;7.50;67.72;99759.72;5030949;28;45112;-70
2021/12/05 08:44:11;;;;;;;;;0.75;0.25;;;;;7.41;66.84;99740.94;5019041;28;45120;-70
2021/12/05 09:27:22;;;;;;;;;4.00;1.00;;;;;7.60;68.21;99773.22;5031126;28;45459;-71
2021/12/05 10:07:36;;;;;;;;;1.75;1.75;;;;;8.17;65.04;99770.03;5030117;28;46067;-69
2021/12/05 10:26:23;;;;;;;;;7.00;4.25;;;;;8.58;65.40;99791.25;5026567;28;45158;-67
2021/12/05 10:26:31;;;;;;;;;1.75;1.25;;;;;8.64;65.73;99793.13;5031512;28;45150;-70
2021/12/05 10:37:55;;;;;;;;;2.00;1.00;;;;;8.72;65.76;99798.59;5029512;28;44914;-69
2021/12/05 10:40:33;;;;;;;;;4.25;2.00;;;;;8.73;66.37;99803.03;5010679;28;45100;-71
2021/12/05 10:42:59;;;;;;;;;0.25;0.25;;;;;8.72;65.03;99785.28;5022330;28;45355;-71
2021/12/05 10:45:42;;;;;;;;;3.75;2.75;;;;;8.79;65.80;99789.84;5029712;28;45258;-69
2021/12/05 10:48:11;;;;;;;;;3.75;2.25;;;;;8.81;65.32;99788.09;5042327;28;45497;-68
2021/12/05 10:51:03;;;;;;;;;1.50;0.00;;;;;8.73;64.61;99779.09;5031654;28;45065;-68
2021/12/05 10:53:29;;;;;;;;;8.25;4.25;;;;;8.79;64.95;99784.53;5010999;28;45469;-70
2021/12/05 10:55:54;;;;;;;;;2.75;2.75;;;;;8.77;64.22;99787.16;5027837;28;45207;-69
2021/12/05 10:58:19;;;;;;;;;2.00;2.00;;;;;8.71;65.20;99784.41;5030640;28;45280;-70
2021/12/05 11:00:45;;;;;;;;;1.25;0.75;;;;;8.77;64.82;99786.28;5029003;28;45064;-71
2021/12/05 11:03:16;;;;;;;;;2.25;2.25;;;;;8.81;66.20;99766.78;5029953;28;45756;-70
2021/12/05 11:05:42;;;;;;;;;1.75;1.75;;;;;8.86;65.38;99775.78;5029611;28;45393;-68
2021/12/05 11:08:34;;;;;;;;;3.50;1.25;;;;;8.87;63.64;99774.03;5012758;28;45124;-69
2021/12/05 11:11:11;;;;;;;;;1.50;1.50;;;;;8.82;64.07;99776.59;5012128;28;44991;-69
2021/12/05 11:13:39;;;;;;;;;7.25;1.50;;;;;8.77;64.48;99779.16;5008447;28;45354;-71
2021/12/05 11:16:44;;;;;;;;;1.50;1.50;;;;;8.80;65.25;99773.91;5009359;28;45280;-71
2021/12/05 11:19:10;;;;;;;;;3.75;2.75;;;;;8.89;64.95;99773.16;5009740;28;45333;-69
2021/12/05 11:21:36;;;;;;;;;3.00;2.00;;;;;8.85;65.88;99760.69;5008401;28;45326;-69
2021/12/05 11:24:13;;;;;;;;;2.25;2.25;;;;;8.93;65.02;99780.34;5015926;28;45807;-70
2021/12/05 11:26:41;;;;;;;;;2.00;1.25;;;;;8.90;64.81;99782.97;5031393;28;45247;-69
2021/12/05 11:29:09;;;;;;;;;5.00;2.75;;;;;8.90;64.65;99777.63;5030309;28;45049;-70
2021/12/05 11:31:35;;;;;;;;;2.00;2.00;;;;;8.83;64.75;99781.94;5030463;28;45329;-69
2021/12/05 11:34:01;;;;;;;;;3.00;3.00;;;;;8.80;64.63;99776.56;5028793;28;45960;-70
2021/12/05 11:36:30;;;;;;;;;8.75;5.00;;;;;8.75;65.26;99786.25;5023245;28;45349;-71
2021/12/05 11:38:55;;;;;;;;;3.00;2.00;;;;;8.73;65.76;99781.75;5027610;28;45545;-71
2021/12/05 11:41:23;;;;;;;;;11.25;7.00;;;;;8.72;66.20;99783.53;5030101;28;45305;-70
2021/12/05 11:43:55;;;;;;;;;2.50;2.50;;;;;8.67;66.11;99777.22;5028649;28;46008;-68
2021/12/05 11:46:33;;;;;;;;;5.50;4.00;;;;;8.46;66.76;99767.06;5029548;28;45195;-71
2021/12/05 11:49:02;;;;;;;;;6.00;5.00;;;;;8.65;67.02;99794.94;5030323;28;45369;-72
2021/12/05 11:51:34;;;;;;;;;6.50;3.75;;;;;8.78;65.96;99804.94;5028327;28;45232;-70
2021/12/05 11:54:01;;;;;;;;;1.75;1.75;;;;;8.83;66.66;99821.91;5028932;28;45757;-68
2021/12/05 11:56:29;;;;;;;;;2.00;2.00;;;;;8.82;66.20;99821.88;5028754;28;45133;-69
2021/12/05 11:59:12;;;;;;;;;4.00;4.00;;;;;8.69;66.14;99798.56;5029613;28;45121;-68
2021/12/05 12:01:42;;;;;;;;;2.00;2.00;;;;;8.74;65.45;99820.84;5029590;28;45282;-70
2021/12/05 12:04:10;;;;;;;;;3.00;3.00;;;;;8.67;66.09;99791.41;5030769;28;45889;-71
2021/12/05 12:06:36;;;;;;;;;4.00;2.50;;;;;8.73;66.06;99790.66;5029854;28;44957;-71
2021/12/05 12:09:02;;;;;;;;;4.25;3.00;;;;;8.96;65.55;99817.69;5029185;28;44894;-70
2021/12/05 12:11:28;;;;;;;;;3.75;3.75;;;;;8.96;65.49;99814.13;5029692;28;44924;-71
2021/12/05 12:13:54;;;;;;;;;4.50;4.50;;;;;8.89;65.01;99806.91;5027258;28;46276;-70
2021/12/05 12:16:21;;;;;;;;;4.00;3.00;;;;;8.97;65.20;99813.25;5028607;28;45151;-69
2021/12/05 12:18:49;;;;;;;;;18.75;11.00;;;;;9.02;64.18;99824.91;5030034;28;45396;-70
2021/12/05 12:21:19;;;;;;;;;9.00;6.25;;;;;8.92;65.33;99790.97;5025796;28;46228;-71
2021/12/05 12:23:48;;;;;;;;;7.50;2.50;;;;;9.14;63.84;99818.88;5029630;28;45213;-71
2021/12/05 12:26:13;;;;;;;;;2.00;2.00;;;;;8.84;63.07;99777.50;5043332;28;45386;-71
2021/12/05 12:28:39;;;;;;;;;6.50;5.50;;;;;8.85;62.86;99805.94;5029035;28;45068;-69
2021/12/05 12:31:28;;;;;;;;;4.75;3.25;;;;;8.87;63.09;99812.19;5029522;28;45466;-71
2021/12/05 12:33:58;;;;;;;;;4.25;4.25;;;;;8.64;63.29;99775.38;5028380;28;45068;-71
2021/12/05 12:36:52;;;;;;;;;26.00;26.00;;;;;8.97;62.94;99829.25;5027922;28;45387;-69
2021/12/05 12:39:17;;;;;;;;;8.50;6.00;;;;;8.78;62.61;99818.25;5026969;28;45582;-71
2021/12/05 12:41:59;;;;;;;;;9.25;8.00;;;;;8.73;63.60;99835.91;5028174;28;45206;-71
2021/12/05 12:44:25;;;;;;;;;5.50;5.00;;;;;8.77;62.75;99837.75;5025080;28;46928;-69
2021/12/05 12:46:55;;;;;;;;;5.25;5.25;;;;;8.57;63.37;99816.09;5028602;28;45269;-69
2021/12/05 12:49:29;;;;;;;;;5.50;5.50;;;;;8.65;63.96;99843.75;5027026;28;45368;-69
2021/12/05 12:52:09;;;;;;;;;6.75;6.75;;;;;8.68;63.73;99842.94;5031429;28;45527;-70
2021/12/05 12:54:37;;;;;;;;;5.25;3.00;;;;;8.78;63.74;99841.34;5032293;28;45450;-70
2021/12/05 12:57:14;;;;;;;;;3.75;3.75;;;;;8.85;63.79;99844.13;5029465;28;45355;-70
2021/12/05 13:00:07;;;;;;;;;5.00;5.00;;;;;8.84;62.55;99833.44;5033495;28;45328;-70
2021/12/05 13:11:11;;;;;;;;;7.00;3.00;;;;;9.01;62.98;99850.66;5033412;28;44922;-70
2021/12/05 13:13:39;;;;;;;;;4.00;4.00;;;;;8.95;62.49;99831.00;5030674;28;45546;-69
2021/12/05 13:16:29;;;;;;;;;10.00;7.50;;;;;8.83;62.49;99795.28;5030483;28;45461;-70
2021/12/05 13:19:11;;;;;;;;;4.25;3.00;;;;;9.25;62.24;99851.94;5029657;28;46079;-69
2021/12/05 13:21:43;;;;;;;;;8.00;5.00;;;;;9.27;62.35;99855.53;5030237;28;45285;-69
2021/12/05 13:24:18;;;;;;;;;4.50;4.50;;;;;9.34;62.53;99861.88;5030229;28;45140;-70
2021/12/05 13:26:43;;;;;;;;;5.00;4.75;;;;;9.34;61.31;99856.56;5031722;28;45157;-72
2021/12/05 13:29:15;;;;;;;;;5.75;3.00;;;;;9.46;62.39;99864.75;5029179;28;45438;-70
2021/12/05 13:31:53;;;;;;;;;10.25;6.50;;;;;9.57;62.42;99867.59;5031558;28;45364;-72
2021/12/05 13:34:32;;;;;;;;;10.00;4.00;;;;;9.46;61.42;99829.19;5031371;28;45002;-68
2021/12/05 13:37:20;;;;;;;;;5.00;5.00;;;;;9.69;61.20;99859.78;5031907;28;45822;-72
2021/12/05 13:40:03;;;;;;;;;10.00;10.00;;;;;9.78;61.76;99873.25;5030934;28;45925;-69
2021/12/05 13:42:34;;;;;;;;;6.00;6.00;;;;;9.81;61.68;99868.84;5031389;28;45250;-69
2021/12/05 13:45:04;;;;;;;;;4.75;4.25;;;;;9.83;61.02;99869.75;5031082;28;45544;-70
2021/12/05 13:47:41;;;;;;;;;6.00;5.50;;;;;9.89;60.99;99876.09;5030481;28;45739;-69
2021/12/05 13:50:25;;;;;;;;;4.25;4.00;;;;;9.89;60.70;99875.19;5031338;28;45324;-70
2021/12/05 13:53:16;;;;;;;;;6.00;4.50;;;;;9.65;61.41;99825.94;5029006;28;45515;-71
2021/12/05 13:55:54;;;;;;;;;4.75;4.75;;;;;9.92;60.89;99884.13;5029776;28;45043;-70
2021/12/05 13:58:24;;;;;;;;;10.75;10.00;;;;;9.76;61.65;99858.09;5029380;28;45449;-72
2021/12/05 14:01:01;;;;;;;;;4.00;4.00;;;;;9.72;61.02;99859.81;5028575;28;45479;-68
2021/12/05 14:03:45;;;;;;;;;10.50;7.50;;;;;9.92;61.76;99900.16;5031023;28;44797;-70
2021/12/05 14:06:38;;;;;;;;;7.25;6.75;;;;;9.82;61.71;99897.31;5031163;28;45007;-70
2021/12/05 14:09:09;;;;;;;;;8.25;6.00;;;;;9.83;62.27;99897.31;5012889;28;46381;-69
2021/12/05 14:11:37;;;;;;;;;9.75;6.00;;;;;9.47;61.69;99825.63;5013041;28;44995;-70
2021/12/05 14:14:05;;;;;;;;;10.50;8.50;;;;;9.91;61.55;99897.44;5012992;28;45179;-70
2021/12/05 14:16:40;;;;;;;;;6.50;6.50;;;;;9.80;61.79;99872.38;5010035;28;45155;-71
2021/12/05 14:19:09;;;;;;;;;19.25;15.00;;;;;9.69;61.57;99861.56;5008653;28;47084;-71
2021/12/05 14:21:40;;;;;;;;;6.50;6.50;;;;;9.75;61.45;99865.22;5009439;28;45296;-69
2021/12/05 14:24:06;;;;;;;;;4.75;4.75;;;;;9.78;61.24;99875.00;5011621;28;45061;-69
2021/12/05 14:26:36;;;;;;;;;11.00;7.25;;;;;9.85;61.43;99911.59;5012804;28;45040;-70
2021/12/05 14:29:01;;;;;;;;;9.50;8.25;;;;;9.84;62.28;99907.13;5010847;28;45914;-68
2021/12/05 14:31:31;;;;;;;;;6.00;6.00;;;;;9.30;62.43;99826.25;5008869;28;45340;-67
2021/12/05 14:33:57;;;;;;;;;12.00;6.50;;;;;9.80;61.89;99917.72;5008994;28;44975;-68
2021/12/05 14:36:32;;;;;;;;;11.00;6.25;;;;;9.73;61.79;99908.72;5010535;28;45010;-70
2021/12/05 14:39:08;;;;;;;;;10.00;5.00;;;;;9.41;62.29;99888.66;5006842;28;45767;-68
2021/12/05 14:41:34;;;;;;;;;6.00;5.75;;;;;9.43;62.11;99902.00;5010651;28;45307;-69
2021/12/05 14:44:00;;;;;;;;;9.75;8.75;;;;;9.58;62.45;99933.38;5009730;28;45074;-69
2021/12/05 14:46:26;;;;;;;;;7.25;6.00;;;;;9.65;63.29;99940.63;5010353;28;45406;-70
2021/12/05 14:49:04;;;;;;;;;8.75;5.50;;;;;9.70;63.51;99935.34;5009391;28;45990;-71
2021/12/05 14:51:39;;;;;;;;;4.75;4.75;;;;;9.61;63.11;99924.53;5010585;28;44938;-69
2021/12/05 14:54:05;;;;;;;;;9.25;4.00;;;;;9.30;62.79;99854.69;5000600;28;45403;-69
2021/12/05 14:56:33;;;;;;;;;6.50;4.00;;;;;9.76;62.44;99947.00;5030139;28;45726;-70
2021/12/05 14:59:13;;;;;;;;;10.25;5.00;;;;;9.36;62.90;99885.00;5031159;28;45156;-71
2021/12/05 15:01:41;;;;;;;;;8.75;6.25;;;;;9.74;62.77;99955.88;5023914;28;45570;-70
2021/12/05 15:04:09;;;;;;;;;8.50;6.00;;;;;9.71;63.11;99943.38;5030550;28;44899;-70
2021/12/05 15:06:42;;;;;;;;;3.75;3.75;;;;;9.89;62.74;99965.91;5030456;28;45029;-69
2021/12/05 15:09:21;;;;;;;;;5.00;5.00;;;;;9.79;62.72;99951.50;5028385;28;47793;-68
2021/12/05 15:11:55;;;;;;;;;11.25;7.50;;;;;9.53;62.68;99911.06;5008245;28;45194;-71
2021/12/05 15:14:21;;;;;;;;;8.50;6.00;;;;;9.98;62.67;99974.03;5006144;28;45293;-70
2021/12/05 15:16:57;;;;;;;;;11.25;8.25;;;;;9.93;63.14;99983.75;5010994;28;45139;-70
2021/12/05 15:19:24;;;;;;;;;3.25;3.00;;;;;9.68;63.67;99961.09;5010839;28;45546;-71
2021/12/05 15:21:49;;;;;;;;;8.75;8.75;;;;;9.74;63.16;99972.78;5009862;28;44904;-69
2021/12/05 15:24:18;;;;;;;;;9.25;6.00;;;;;9.78;64.18;99974.63;5009319;28;45182;-69
2021/12/05 15:26:43;;;;;;;;;11.50;7.00;;;;;9.90;63.70;100008.63;5010309;28;45029;-72
2021/12/05 15:29:09;;;;;;;;;11.00;8.75;;;;;9.75;63.88;99985.25;5009790;28;46637;-70
2021/12/05 15:31:37;;;;;;;;;9.00;8.50;;;;;9.90;63.55;100011.28;5007415;28;45002;-71
2021/12/05 15:34:18;;;;;;;;;12.00;12.00;;;;;9.78;63.73;99998.66;5010127;28;45287;-68
2021/12/05 15:36:44;;;;;;;;;11.75;11.75;;;;;9.69;63.42;99989.59;5010306;28;45382;-71
2021/12/05 15:39:19;;;;;;;;;22.25;18.50;;;;;9.62;63.90;100003.66;5009966;28;45340;-69
2021/12/05 15:41:46;;;;;;;;;9.75;9.75;;;;;9.56;64.56;99997.34;5009804;28;45371;-69
2021/12/05 15:44:36;;;;;;;;;13.00;11.50;;;;;9.72;63.06;100027.88;5003913;28;45524;-70
2021/12/05 15:47:07;;;;;;;;;6.25;6.25;;;;;9.74;64.01;100036.78;5005570;28;45352;-70
2021/12/05 15:49:49;;;;;;;;;11.25;8.75;;;;;9.77;63.35;100044.84;5007997;28;45474;-71
2021/12/05 15:52:15;;;;;;;;;9.00;6.50;;;;;9.75;63.90;100049.28;5000906;28;45284;-69
2021/12/05 15:54:45;;;;;;;;;10.25;9.00;;;;;9.58;63.69;100032.03;4999560;28;45391;-70
2021/12/05 15:57:15;;;;;;;;;7.25;5.25;;;;;9.46;63.64;100022.03;4996834;28;45371;-69
2021/12/05 15:59:46;;;;;;;;;5.50;5.50;;;;;9.49;63.86;100039.88;4995820;28;45338;-73
2021/12/05 16:02:17;;;;;;;;;9.25;7.50;;;;;9.40;63.71;100024.59;5017188;28;45485;-70
2021/12/05 16:04:42;;;;;;;;;13.75;11.75;;;;;9.50;63.50;100057.66;5025227;28;45442;-70
2021/12/05 16:07:10;;;;;;;;;11.25;10.50;;;;;9.39;63.78;100044.13;5015462;28;45504;-69
2021/12/05 16:09:38;;;;;;;;;17.75;14.50;;;;;9.69;63.56;100098.94;5013721;28;45574;-70
2021/12/05 16:12:12;;;;;;;;;10.25;9.25;;;;;9.44;63.37;100052.19;5013679;28;45447;-69
2021/12/05 16:14:44;;;;;;;;;18.50;16.00;;;;;9.52;63.38;100070.16;5015249;28;45435;-70
2021/12/05 16:17:23;;;;;;;;;5.00;5.00;;;;;9.67;63.36;100106.91;5017597;28;45313;-70
2021/12/05 16:20:12;;;;;;;;;10.25;10.25;;;;;9.71;63.46;100111.41;5014716;28;45567;-69
2021/12/05 16:22:57;;;;;;;;;14.00;11.00;;;;;9.21;63.95;100024.22;5012709;28;45411;-70
2021/12/05 16:25:23;;;;;;;;;8.25;6.50;;;;;9.74;63.06;100121.25;5013507;28;45392;-71
2021/12/05 16:27:52;;;;;;;;;9.00;6.00;;;;;9.75;63.50;100125.72;5015910;28;45543;-69
2021/12/05 16:30:26;;;;;;;;;7.50;6.75;;;;;9.57;62.93;100111.16;5016492;28;46650;-69
2021/12/05 16:32:52;;;;;;;;;8.50;5.50;;;;;9.65;62.99;100138.00;5013494;28;45445;-69
2021/12/05 16:35:51;;;;;;;;;11.50;9.00;;;;;9.67;62.85;100141.59;5013681;28;45433;-71
2021/12/05 16:38:25;;;;;;;;;4.75;3.00;;;;;9.58;62.16;100134.28;5014069;28;45559;-70
2021/12/05 16:40:50;;;;;;;;;6.00;3.50;;;;;9.62;62.34;100137.00;5014489;28;45527;-70
2021/12/05 16:43:16;;;;;;;;;5.25;5.25;;;;;9.44;62.37;100117.13;5013800;28;45486;-71
2021/12/05 16:45:41;;;;;;;;;8.00;4.00;;;;;9.06;62.82;100053.25;5014292;28;45400;-70
2021/12/05 16:48:07;;;;;;;;;5.25;4.00;;;;;9.57;62.86;100140.50;5013458;28;45324;-71
2021/12/05 16:50:32;;;;;;;;;4.25;4.00;;;;;9.61;62.06;100159.22;5012222;28;47220;-71
2021/12/05 16:52:58;;;;;;;;;6.25;5.00;;;;;9.59;62.93;100156.53;5020335;28;45283;-71
2021/12/05 16:55:27;;;;;;;;;13.25;8.75;;;;;9.49;63.41;100133.22;5015561;28;45340;-70
2021/12/05 16:58:02;;;;;;;;;10.50;10.50;;;;;9.48;63.10;100123.41;5028423;28;45251;-69
2021/12/05 17:00:29;;;;;;;;;15.75;13.00;;;;;9.77;63.22;100162.22;5027274;28;45388;-70
2021/12/05 17:03:07;;;;;;;;;25.00;18.75;;;;;9.74;62.53;100170.16;5015285;28;45393;-72